sensor_id;sensor_type;location;lat;lon;timestamp;pressure;altitude;pressure_sealevel;temperature;humidity
37648;BME280;23490;53.656;10.076;2023-05-03T00:00:28;99273.44;;;-145.95;83.49
37648;BME280;23490;53.656;10.076;2023-05-03T00:02:53;99285.84;;;-145.95;83.33
37648;BME280;23490;53.656;10.076;2023-05-03T00:05:21;99269.31;;;-145.95;83.04
37648;BME280;23490;53.656;10.076;2023-05-03T00:07:46;99314.75;;;-145.95;84.55
37648;BME280;23490;53.656;10.076;2023-05-03T00:10:12;99300.28;;;-145.95;85.04
37648;BME280;23490;53.656;10.076;2023-05-03T00:12:39;99294.09;;;-145.95;85.15
37648;BME280;23490;53.656;10.076;2023-05-03T00:15:05;99277.56;;;-145.95;84.72
37648;BME280;23490;53.656;10.076;2023-05-03T00:17:31;99302.34;;;-145.95;84.09
37648;BME280;23490;53.656;10.076;2023-05-03T00:19:56;99289.97;;;-145.95;85.27
37648;BME280;23490;53.656;10.076;2023-05-03T00:22:21;99289.97;;;-145.95;85.60
37648;BME280;23490;53.656;10.076;2023-05-03T00:24:48;99318.88;;;-145.95;85.64
37648;BME280;23490;53.656;10.076;2023-05-03T00:27:15;99292.03;;;-145.95;85.27
37648;BME280;23490;53.656;10.076;2023-05-03T00:29:40;99285.84;;;-145.95;84.90
37648;BME280;23490;53.656;10.076;2023-05-03T00:32:05;99306.50;;;-145.95;85.13
37648;BME280;23490;53.656;10.076;2023-05-03T00:34:32;99327.13;;;-145.95;85.77
37648;BME280;23490;53.656;10.076;2023-05-03T00:36:57;99281.72;;;-145.95;86.32
37648;BME280;23490;53.656;10.076;2023-05-03T00:39:22;99339.53;;;-145.95;86.05
37648;BME280;23490;53.656;10.076;2023-05-03T00:41:47;99339.53;;;-145.95;85.49
37648;BME280;23490;53.656;10.076;2023-05-03T00:44:13;99339.53;;;-145.95;85.62
37648;BME280;23490;53.656;10.076;2023-05-03T00:46:38;99349.84;;;-145.95;86.22
37648;BME280;23490;53.656;10.076;2023-05-03T00:49:05;99314.75;;;-145.95;86.54
37648;BME280;23490;53.656;10.076;2023-05-03T00:51:30;99335.41;;;-145.95;85.89
37648;BME280;23490;53.656;10.076;2023-05-03T00:53:56;99343.66;;;-145.95;86.32
37648;BME280;23490;53.656;10.076;2023-05-03T00:56:22;99314.75;;;-145.95;86.30
37648;BME280;23490;53.656;10.076;2023-05-03T00:58:49;99316.81;;;-145.95;86.83
37648;BME280;23490;53.656;10.076;2023-05-03T01:01:15;99318.88;;;-145.95;87.08
37648;BME280;23490;53.656;10.076;2023-05-03T01:03:40;99331.28;;;-145.95;86.83
37648;BME280;23490;53.656;10.076;2023-05-03T01:11:39;99306.50;;;-145.95;87.06
37648;BME280;23490;53.656;10.076;2023-05-03T01:16:49;99347.78;;;-145.95;87.03
37648;BME280;23490;53.656;10.076;2023-05-03T01:19:34;99331.28;;;-145.95;86.87
37648;BME280;23490;53.656;10.076;2023-05-03T01:22:32;99327.13;;;-145.95;86.77
37648;BME280;23490;53.656;10.076;2023-05-03T01:25:12;99318.88;;;-145.95;87.21
37648;BME280;23490;53.656;10.076;2023-05-03T01:27:39;99345.72;;;-145.95;86.91
37648;BME280;23490;53.656;10.076;2023-05-03T01:30:06;99364.31;;;-145.95;86.87
37648;BME280;23490;53.656;10.076;2023-05-03T01:35:22;99320.94;;;-145.95;87.46
37648;BME280;23490;53.656;10.076;2023-05-03T01:37:50;99382.91;;;-145.95;88.47
37648;BME280;23490;53.656;10.076;2023-05-03T01:40:16;99380.84;;;-145.95;88.51
37648;BME280;23490;53.656;10.076;2023-05-03T01:42:44;99356.06;;;-145.95;88.01
37648;BME280;23490;53.656;10.076;2023-05-03T01:45:10;99331.28;;;-145.95;88.09
37648;BME280;23490;53.656;10.076;2023-05-03T01:47:36;99343.66;;;-145.95;88.18
37648;BME280;23490;53.656;10.076;2023-05-03T01:50:01;99341.59;;;-145.95;88.68
37648;BME280;23490;53.656;10.076;2023-05-03T01:52:27;99335.41;;;-145.95;89.69
37648;BME280;23490;53.656;10.076;2023-05-03T01:54:52;99343.66;;;-145.95;89.46
37648;BME280;23490;53.656;10.076;2023-05-03T01:57:17;99343.66;;;-145.95;89.31
37648;BME280;23490;53.656;10.076;2023-05-03T01:59:43;99314.75;;;-145.95;89.74
37648;BME280;23490;53.656;10.076;2023-05-03T02:02:08;99356.06;;;-145.95;90.65
37648;BME280;23490;53.656;10.076;2023-05-03T02:04:33;99351.91;;;-145.95;90.77
37648;BME280;23490;53.656;10.076;2023-05-03T02:06:58;99341.59;;;-145.95;90.00
37648;BME280;23490;53.656;10.076;2023-05-03T02:09:24;99329.19;;;-145.95;90.63
37648;BME280;23490;53.656;10.076;2023-05-03T02:11:49;99349.84;;;-145.95;90.17
37648;BME280;23490;53.656;10.076;2023-05-03T02:14:15;99360.19;;;-145.95;90.21
37648;BME280;23490;53.656;10.076;2023-05-03T02:16:40;99356.06;;;-145.95;90.02
37648;BME280;23490;53.656;10.076;2023-05-03T02:19:05;99364.31;;;-145.95;90.44
37648;BME280;23490;53.656;10.076;2023-05-03T02:21:33;99376.69;;;-145.95;90.53
37648;BME280;23490;53.656;10.076;2023-05-03T02:23:59;99372.56;;;-145.95;91.53
37648;BME280;23490;53.656;10.076;2023-05-03T02:26:24;99345.72;;;-145.95;91.65
37648;BME280;23490;53.656;10.076;2023-05-03T02:28:50;99331.28;;;-145.95;91.52
37648;BME280;23490;53.656;10.076;2023-05-03T02:31:15;99380.84;;;-145.95;91.54
37648;BME280;23490;53.656;10.076;2023-05-03T02:33:40;99368.44;;;-145.95;90.59
37648;BME280;23490;53.656;10.076;2023-05-03T02:36:06;99335.41;;;-145.95;91.85
37648;BME280;23490;53.656;10.076;2023-05-03T02:38:32;99302.34;;;-145.95;90.90
37648;BME280;23490;53.656;10.076;2023-05-03T02:40:57;99347.78;;;-145.95;91.14
37648;BME280;23490;53.656;10.076;2023-05-03T02:43:23;99384.97;;;-145.95;91.92
37648;BME280;23490;53.656;10.076;2023-05-03T02:45:49;99335.41;;;-145.95;92.22
37648;BME280;23490;53.656;10.076;2023-05-03T02:48:14;99331.28;;;-145.95;92.50
37648;BME280;23490;53.656;10.076;2023-05-03T02:50:40;99314.75;;;-145.95;92.81
37648;BME280;23490;53.656;10.076;2023-05-03T02:53:06;99364.31;;;-145.95;93.58
37648;BME280;23490;53.656;10.076;2023-05-03T02:55:31;99331.28;;;-145.95;92.97
37648;BME280;23490;53.656;10.076;2023-05-03T02:57:57;99335.41;;;-145.95;92.16
37648;BME280;23490;53.656;10.076;2023-05-03T03:03:44;99339.53;;;-145.95;92.39
37648;BME280;23490;53.656;10.076;2023-05-03T03:06:09;99327.13;;;-145.95;91.30
37648;BME280;23490;53.656;10.076;2023-05-03T03:08:35;99314.75;;;-145.95;91.65
37648;BME280;23490;53.656;10.076;2023-05-03T03:11:01;99312.69;;;-145.95;90.90
37648;BME280;23490;53.656;10.076;2023-05-03T03:13:27;99318.88;;;-145.95;91.99
37648;BME280;23490;53.656;10.076;2023-05-03T03:15:52;99337.47;;;-145.95;91.29
37648;BME280;23490;53.656;10.076;2023-05-03T03:18:17;99327.13;;;-145.95;91.97
37648;BME280;23490;53.656;10.076;2023-05-03T03:20:42;99310.63;;;-145.95;91.83
37648;BME280;23490;53.656;10.076;2023-05-03T03:23:08;99298.22;;;-145.95;92.12
37648;BME280;23490;53.656;10.076;2023-05-03T03:25:33;99306.50;;;-145.95;91.89
37648;BME280;23490;53.656;10.076;2023-05-03T03:27:58;99314.75;;;-145.95;91.19
37648;BME280;23490;53.656;10.076;2023-05-03T03:30:24;99323.00;;;-145.95;91.60
37648;BME280;23490;53.656;10.076;2023-05-03T03:32:50;99333.34;;;-145.95;92.05
37648;BME280;23490;53.656;10.076;2023-05-03T03:35:15;99310.63;;;-145.95;92.06
37648;BME280;23490;53.656;10.076;2023-05-03T03:37:41;99298.22;;;-145.95;92.33
37648;BME280;23490;53.656;10.076;2023-05-03T03:40:06;99310.63;;;-145.95;92.30
37648;BME280;23490;53.656;10.076;2023-05-03T03:42:32;99298.22;;;-145.95;91.84
37648;BME280;23490;53.656;10.076;2023-05-03T03:44:57;99269.31;;;-145.95;92.13
37648;BME280;23490;53.656;10.076;2023-05-03T03:47:23;99285.84;;;-145.95;91.55
37648;BME280;23490;53.656;10.076;2023-05-03T03:49:48;99285.84;;;-145.95;91.98
37648;BME280;23490;53.656;10.076;2023-05-03T03:52:13;99281.72;;;-145.95;92.63
37648;BME280;23490;53.656;10.076;2023-05-03T03:54:39;99273.44;;;-145.95;92.44
37648;BME280;23490;53.656;10.076;2023-05-03T03:57:04;99306.50;;;-145.95;94.63
37648;BME280;23490;53.656;10.076;2023-05-03T03:59:29;99289.97;;;-145.95;95.09
37648;BME280;23490;53.656;10.076;2023-05-03T04:01:55;99302.34;;;-145.95;95.06
37648;BME280;23490;53.656;10.076;2023-05-03T04:04:20;99248.66;;;-145.95;94.91
37648;BME280;23490;53.656;10.076;2023-05-03T04:06:46;99294.09;;;-145.95;94.73
37648;BME280;23490;53.656;10.076;2023-05-03T04:09:11;99306.50;;;-145.95;94.02
37648;BME280;23490;53.656;10.076;2023-05-03T04:11:36;99302.34;;;-145.95;93.50
37648;BME280;23490;53.656;10.076;2023-05-03T04:14:02;99296.16;;;-145.95;93.97
37648;BME280;23490;53.656;10.076;2023-05-03T04:16:28;99248.66;;;-145.95;94.09
37648;BME280;23490;53.656;10.076;2023-05-03T04:18:54;99285.84;;;-145.95;94.19
37648;BME280;23490;53.656;10.076;2023-05-03T04:21:19;99232.16;;;-145.95;93.98
37648;BME280;23490;53.656;10.076;2023-05-03T04:23:45;99244.53;;;-145.95;93.75
37648;BME280;23490;53.656;10.076;2023-05-03T04:26:10;99236.28;;;-145.95;93.28
37648;BME280;23490;53.656;10.076;2023-05-03T04:28:35;99244.53;;;-145.95;93.30
37648;BME280;23490;53.656;10.076;2023-05-03T04:31:03;99240.41;;;-145.95;92.86
37648;BME280;23490;53.656;10.076;2023-05-03T04:33:28;99240.41;;;-145.95;92.72
37648;BME280;23490;53.656;10.076;2023-05-03T04:35:54;99232.16;;;-145.95;92.77
37648;BME280;23490;53.656;10.076;2023-05-03T04:38:20;99261.06;;;-145.95;92.20
37648;BME280;23490;53.656;10.076;2023-05-03T04:40:46;99232.16;;;-145.95;92.50
37648;BME280;23490;53.656;10.076;2023-05-03T04:43:11;99250.72;;;-145.95;92.58
37648;BME280;23490;53.656;10.076;2023-05-03T04:45:38;99265.19;;;-145.95;91.17
37648;BME280;23490;53.656;10.076;2023-05-03T04:48:03;99228.00;;;-145.95;91.46
37648;BME280;23490;53.656;10.076;2023-05-03T04:50:29;99215.63;;;-145.95;92.50
37648;BME280;23490;53.656;10.076;2023-05-03T04:52:55;99244.53;;;-145.95;91.29
37648;BME280;23490;53.656;10.076;2023-05-03T04:55:20;99236.28;;;-145.95;90.78
37648;BME280;23490;53.656;10.076;2023-05-03T04:57:46;99219.75;;;-145.95;90.54
37648;BME280;23490;53.656;10.076;2023-05-03T05:00:11;99232.16;;;-145.95;90.42
37648;BME280;23490;53.656;10.076;2023-05-03T05:02:37;99207.38;;;-145.95;90.97
37648;BME280;23490;53.656;10.076;2023-05-03T05:05:03;99209.44;;;-145.95;90.50
37648;BME280;23490;53.656;10.076;2023-05-03T05:07:28;99219.75;;;-145.95;90.32
37648;BME280;23490;53.656;10.076;2023-05-03T05:09:54;99248.66;;;-145.95;89.09
37648;BME280;23490;53.656;10.076;2023-05-03T05:12:20;99186.72;;;-145.95;88.68
37648;BME280;23490;53.656;10.076;2023-05-03T05:14:45;99199.09;;;-145.95;88.34
37648;BME280;23490;53.656;10.076;2023-05-03T05:17:10;99178.44;;;-145.95;88.44
37648;BME280;23490;53.656;10.076;2023-05-03T05:19:36;99234.22;;;-145.95;88.43
37648;BME280;23490;53.656;10.076;2023-05-03T05:22:01;99215.63;;;-145.95;88.61
37648;BME280;23490;53.656;10.076;2023-05-03T05:24:26;99199.09;;;-145.95;89.06
37648;BME280;23490;53.656;10.076;2023-05-03T05:26:52;99182.59;;;-145.95;88.48
37648;BME280;23490;53.656;10.076;2023-05-03T05:29:17;99219.75;;;-145.95;88.41
37648;BME280;23490;53.656;10.076;2023-05-03T05:31:43;99199.09;;;-145.95;87.49
37648;BME280;23490;53.656;10.076;2023-05-03T05:34:08;99122.69;;;-145.95;87.47
37648;BME280;23490;53.656;10.076;2023-05-03T05:36:33;99172.25;;;-145.95;86.90
37648;BME280;23490;53.656;10.076;2023-05-03T05:38:59;99112.38;;;-145.95;86.85
37648;BME280;23490;53.656;10.076;2023-05-03T05:41:24;99170.19;;;-145.95;85.49
37648;BME280;23490;53.656;10.076;2023-05-03T05:43:49;99116.50;;;-145.95;84.14
37648;BME280;23490;53.656;10.076;2023-05-03T05:46:15;99091.72;;;-145.95;84.49
37648;BME280;23490;53.656;10.076;2023-05-03T05:48:41;99091.72;;;-145.95;83.94
37648;BME280;23490;53.656;10.076;2023-05-03T05:51:06;99089.66;;;-145.95;83.46
37648;BME280;23490;53.656;10.076;2023-05-03T05:53:32;99079.34;;;-145.95;81.66
37648;BME280;23490;53.656;10.076;2023-05-03T05:55:57;99050.41;;;-145.95;80.16
37648;BME280;23490;53.656;10.076;2023-05-03T05:58:22;99071.06;;;-145.95;79.77
37648;BME280;23490;53.656;10.076;2023-05-03T06:00:48;99058.69;;;-145.95;79.93
37648;BME280;23490;53.656;10.076;2023-05-03T06:03:14;98984.34;;;-145.95;78.29
37648;BME280;23490;53.656;10.076;2023-05-03T06:05:40;99071.06;;;-145.95;78.17
37648;BME280;23490;53.656;10.076;2023-05-03T06:08:05;99038.03;;;-145.95;77.49
37648;BME280;23490;53.656;10.076;2023-05-03T06:10:31;99025.63;;;-145.95;75.59
37648;BME280;23490;53.656;10.076;2023-05-03T06:12:56;99017.38;;;-145.95;74.54
37648;BME280;23490;53.656;10.076;2023-05-03T06:15:21;99042.16;;;-145.95;73.38
37648;BME280;23490;53.656;10.076;2023-05-03T06:17:46;99009.13;;;-145.95;69.01
37648;BME280;23490;53.656;10.076;2023-05-03T06:20:12;98992.59;;;-145.95;67.77
37648;BME280;23490;53.656;10.076;2023-05-03T06:22:37;99021.50;;;-145.95;67.76
37648;BME280;23490;53.656;10.076;2023-05-03T06:25:03;98943.03;;;-145.95;64.67
37648;BME280;23490;53.656;10.076;2023-05-03T06:27:29;98988.47;;;-145.95;62.88
37648;BME280;23490;53.656;10.076;2023-05-03T06:29:55;98976.09;;;-145.95;63.26
37648;BME280;23490;53.656;10.076;2023-05-03T06:32:20;98943.03;;;-145.95;63.52
37648;BME280;23490;53.656;10.076;2023-05-03T06:34:47;98910.00;;;-145.95;63.88
37648;BME280;23490;53.656;10.076;2023-05-03T06:37:12;98905.88;;;-145.95;64.03
37648;BME280;23490;53.656;10.076;2023-05-03T06:39:38;98971.94;;;-145.95;64.92
37648;BME280;23490;53.656;10.076;2023-05-03T06:42:04;98978.16;;;-145.95;64.05
37648;BME280;23490;53.656;10.076;2023-05-03T06:44:29;98971.94;;;-145.95;63.64
37648;BME280;23490;53.656;10.076;2023-05-03T06:46:54;98951.31;;;-145.95;64.21
37648;BME280;23490;53.656;10.076;2023-05-03T06:49:20;98895.53;;;-145.95;62.83
37648;BME280;23490;53.656;10.076;2023-05-03T06:51:46;98881.09;;;-145.95;61.60
37648;BME280;23490;53.656;10.076;2023-05-03T06:54:11;98901.75;;;-145.95;60.50
37648;BME280;23490;53.656;10.076;2023-05-03T06:56:37;98928.59;;;-145.95;62.44
37648;BME280;23490;53.656;10.076;2023-05-03T06:59:03;98889.34;;;-145.95;62.21
37648;BME280;23490;53.656;10.076;2023-05-03T07:01:30;98891.41;;;-145.95;61.96
37648;BME280;23490;53.656;10.076;2023-05-03T07:03:55;98885.22;;;-145.95;61.38
37648;BME280;23490;53.656;10.076;2023-05-03T07:06:22;98885.22;;;-145.95;61.55
37648;BME280;23490;53.656;10.076;2023-05-03T07:08:50;98860.44;;;-145.95;60.04
37648;BME280;23490;53.656;10.076;2023-05-03T07:11:16;98893.47;;;-145.95;59.74
37648;BME280;23490;53.656;10.076;2023-05-03T07:13:41;98926.53;;;-145.95;60.25
37648;BME280;23490;53.656;10.076;2023-05-03T07:16:07;98899.69;;;-145.95;58.66
37648;BME280;23490;53.656;10.076;2023-05-03T07:18:33;98889.34;;;-145.95;59.95
37648;BME280;23490;53.656;10.076;2023-05-03T07:20:58;98860.44;;;-145.95;60.10
37648;BME280;23490;53.656;10.076;2023-05-03T07:23:25;98790.25;;;-145.95;59.64
37648;BME280;23490;53.656;10.076;2023-05-03T07:25:51;98720.03;;;-145.95;55.80
37648;BME280;23490;53.656;10.076;2023-05-03T07:28:18;98707.66;;;-145.95;55.88
37648;BME280;23490;53.656;10.076;2023-05-03T07:30:43;98645.69;;;-145.95;55.50
37648;BME280;23490;53.656;10.076;2023-05-03T07:33:08;98687.00;;;-145.95;54.00
37648;BME280;23490;53.656;10.076;2023-05-03T07:35:34;98687.00;;;-145.95;53.50
37648;BME280;23490;53.656;10.076;2023-05-03T07:37:59;98645.69;;;-145.95;51.87
37648;BME280;23490;53.656;10.076;2023-05-03T07:40:24;98726.22;;;-145.95;53.10
37648;BME280;23490;53.656;10.076;2023-05-03T07:42:52;98645.69;;;-145.95;53.25
37648;BME280;23490;53.656;10.076;2023-05-03T07:45:18;98682.88;;;-145.95;53.03
37648;BME280;23490;53.656;10.076;2023-05-03T07:47:45;98703.53;;;-145.95;53.25
37648;BME280;23490;53.656;10.076;2023-05-03T07:50:10;98742.75;;;-145.95;52.72
37648;BME280;23490;53.656;10.076;2023-05-03T07:52:36;98736.56;;;-145.95;54.49
37648;BME280;23490;53.656;10.076;2023-05-03T07:55:02;98701.44;;;-145.95;53.30
37648;BME280;23490;53.656;10.076;2023-05-03T07:57:28;98736.56;;;-145.95;53.47
37648;BME280;23490;53.656;10.076;2023-05-03T07:59:53;98724.16;;;-145.95;53.97
37648;BME280;23490;53.656;10.076;2023-05-03T08:02:19;98728.28;;;-145.95;54.21
37648;BME280;23490;53.656;10.076;2023-05-03T08:04:45;98715.91;;;-145.95;53.87
37648;BME280;23490;53.656;10.076;2023-05-03T08:07:11;98728.28;;;-145.95;54.20
37648;BME280;23490;53.656;10.076;2023-05-03T08:09:36;98715.91;;;-145.95;55.65
37648;BME280;23490;53.656;10.076;2023-05-03T08:12:02;98666.34;;;-145.95;54.39
37648;BME280;23490;53.656;10.076;2023-05-03T08:14:27;98567.25;;;-145.95;52.93
37648;BME280;23490;53.656;10.076;2023-05-03T08:16:52;98670.47;;;-145.95;53.52
37648;BME280;23490;53.656;10.076;2023-05-03T08:19:18;98765.47;;;-145.95;54.07
37648;BME280;23490;53.656;10.076;2023-05-03T08:21:43;98717.97;;;-145.95;54.55
37648;BME280;23490;53.656;10.076;2023-05-03T08:24:11;98767.53;;;-145.95;53.88
37648;BME280;23490;53.656;10.076;2023-05-03T08:26:37;98757.19;;;-145.95;54.07
37648;BME280;23490;53.656;10.076;2023-05-03T08:29:03;98649.84;;;-145.95;53.56
37648;BME280;23490;53.656;10.076;2023-05-03T08:31:28;98666.34;;;-145.95;51.71
37648;BME280;23490;53.656;10.076;2023-05-03T08:33:55;98748.94;;;-145.95;51.05
37648;BME280;23490;53.656;10.076;2023-05-03T08:36:20;98687.00;;;-145.95;53.00
37648;BME280;23490;53.656;10.076;2023-05-03T08:38:46;98699.38;;;-145.95;51.21
37648;BME280;23490;53.656;10.076;2023-05-03T08:41:27;98672.53;;;-145.95;53.29
37648;BME280;23490;53.656;10.076;2023-05-03T08:43:53;98720.03;;;-145.95;52.80
37648;BME280;23490;53.656;10.076;2023-05-03T08:46:19;98707.66;;;-145.95;53.65
37648;BME280;23490;53.656;10.076;2023-05-03T08:48:49;98722.09;;;-145.95;52.97
37648;BME280;23490;53.656;10.076;2023-05-03T08:51:15;98736.56;;;-145.95;52.97
37648;BME280;23490;53.656;10.076;2023-05-03T08:53:41;98604.41;;;-145.95;53.53
37648;BME280;23490;53.656;10.076;2023-05-03T08:56:07;98519.75;;;-145.95;51.58
37648;BME280;23490;53.656;10.076;2023-05-03T08:58:34;98414.47;;;-145.95;49.22
37648;BME280;23490;53.656;10.076;2023-05-03T09:01:08;98373.16;;;-145.95;47.02
37648;BME280;23490;53.656;10.076;2023-05-03T09:03:34;98530.06;;;-145.95;50.08
37648;BME280;23490;53.656;10.076;2023-05-03T09:06:00;98587.88;;;-145.95;49.66
37648;BME280;23490;53.656;10.076;2023-05-03T09:08:29;98610.59;;;-145.95;48.89
37648;BME280;23490;53.656;10.076;2023-05-03T09:10:55;98629.19;;;-145.95;49.86
37648;BME280;23490;53.656;10.076;2023-05-03T09:13:28;98674.59;;;-145.95;50.16
37648;BME280;23490;53.656;10.076;2023-05-03T09:15:55;98672.53;;;-145.95;51.00
37648;BME280;23490;53.656;10.076;2023-05-03T09:18:21;98596.16;;;-145.95;50.86
37648;BME280;23490;53.656;10.076;2023-05-03T09:20:48;98509.44;;;-145.95;49.21
37648;BME280;23490;53.656;10.076;2023-05-03T09:25:53;98641.56;;;-145.95;50.13
37648;BME280;23490;53.656;10.076;2023-05-03T09:28:18;98608.53;;;-145.95;50.54
37648;BME280;23490;53.656;10.076;2023-05-03T09:30:45;98649.84;;;-145.95;51.19
37648;BME280;23490;53.656;10.076;2023-05-03T09:33:12;98499.09;;;-145.95;49.54
37648;BME280;23490;53.656;10.076;2023-05-03T09:36:04;98360.78;;;-145.95;48.00
37648;BME280;23490;53.656;10.076;2023-05-03T09:38:32;98348.38;;;-145.95;46.11
37648;BME280;23490;53.656;10.076;2023-05-03T09:40:59;98354.59;;;-145.95;44.97
37648;BME280;23490;53.656;10.076;2023-05-03T09:43:30;98449.56;;;-145.95;46.99
37648;BME280;23490;53.656;10.076;2023-05-03T09:46:09;98439.22;;;-145.95;46.64
37648;BME280;23490;53.656;10.076;2023-05-03T09:48:36;98525.94;;;-145.95;47.62
37648;BME280;23490;53.656;10.076;2023-05-03T09:51:02;98521.81;;;-145.95;49.58
37648;BME280;23490;53.656;10.076;2023-05-03T09:53:29;98534.22;;;-145.95;49.13
37648;BME280;23490;53.656;10.076;2023-05-03T09:55:56;98538.34;;;-145.95;49.21
37648;BME280;23490;53.656;10.076;2023-05-03T09:58:23;98513.56;;;-145.95;49.49
37648;BME280;23490;53.656;10.076;2023-05-03T10:00:50;98472.28;;;-145.95;48.69
37648;BME280;23490;53.656;10.076;2023-05-03T10:03:21;98505.31;;;-145.95;49.05
37648;BME280;23490;53.656;10.076;2023-05-03T10:05:49;98476.41;;;-145.95;48.85
37648;BME280;23490;53.656;10.076;2023-05-03T10:08:40;98457.81;;;-145.95;48.10
37648;BME280;23490;53.656;10.076;2023-05-03T10:11:08;98453.69;;;-145.95;47.32
37648;BME280;23490;53.656;10.076;2023-05-03T10:13:34;98393.81;;;-145.95;45.92
37648;BME280;23490;53.656;10.076;2023-05-03T10:16:05;98381.44;;;-145.95;46.45
37648;BME280;23490;53.656;10.076;2023-05-03T10:18:31;98352.53;;;-145.95;45.84
37648;BME280;23490;53.656;10.076;2023-05-03T10:21:03;98356.66;;;-145.95;46.02
37648;BME280;23490;53.656;10.076;2023-05-03T10:23:30;98449.56;;;-145.95;44.96
37648;BME280;23490;53.656;10.076;2023-05-03T10:28:32;98344.25;;;-145.95;45.54
37648;BME280;23490;53.656;10.076;2023-05-03T10:30:57;98402.06;;;-145.95;46.45
37648;BME280;23490;53.656;10.076;2023-05-03T10:33:32;98373.16;;;-145.95;46.12
37648;BME280;23490;53.656;10.076;2023-05-03T10:36:06;98373.16;;;-145.95;45.63
37648;BME280;23490;53.656;10.076;2023-05-03T10:38:35;98406.19;;;-145.95;48.14
37648;BME280;23490;53.656;10.076;2023-05-03T10:41:01;98464.00;;;-145.95;47.90
37648;BME280;23490;53.656;10.076;2023-05-03T10:45:59;98205.94;;;-145.95;46.13
37648;BME280;23490;53.656;10.076;2023-05-03T10:48:25;98137.81;;;-145.95;44.05
37648;BME280;23490;53.656;10.076;2023-05-03T10:50:52;98133.69;;;-145.95;44.88
37648;BME280;23490;53.656;10.076;2023-05-03T10:56:09;98104.78;;;-145.95;43.10
37648;BME280;23490;53.656;10.076;2023-05-03T10:58:45;97902.47;;;-145.95;41.29
37648;BME280;23490;53.656;10.076;2023-05-03T11:01:13;97646.50;;;-145.95;39.44
37648;BME280;23490;53.656;10.076;2023-05-03T11:03:47;97815.78;;;-145.95;39.49
37648;BME280;23490;53.656;10.076;2023-05-03T11:08:56;97502.03;;;-145.95;37.48
37648;BME280;23490;53.656;10.076;2023-05-03T11:11:22;97638.25;;;-145.95;37.36
37648;BME280;23490;53.656;10.076;2023-05-03T11:13:49;97530.91;;;-145.95;36.03
37648;BME280;23490;53.656;10.076;2023-05-03T11:16:14;97675.41;;;-145.95;36.08
37648;BME280;23490;53.656;10.076;2023-05-03T11:18:40;97636.19;;;-145.95;37.58
37648;BME280;23490;53.656;10.076;2023-05-03T11:21:06;97762.09;;;-145.95;37.03
37648;BME280;23490;53.656;10.076;2023-05-03T11:23:31;97753.84;;;-145.95;37.98
37648;BME280;23490;53.656;10.076;2023-05-03T11:25:57;97563.94;;;-145.95;38.44
37648;BME280;23490;53.656;10.076;2023-05-03T11:28:23;97559.81;;;-145.95;36.78
37648;BME280;23490;53.656;10.076;2023-05-03T11:30:49;97594.91;;;-145.95;38.04
37648;BME280;23490;53.656;10.076;2023-05-03T11:33:15;97658.91;;;-145.95;39.42
37648;BME280;23490;53.656;10.076;2023-05-03T11:35:40;97691.91;;;-145.95;36.38
37648;BME280;23490;53.656;10.076;2023-05-03T11:38:07;97947.88;;;-145.95;38.34
37648;BME280;23490;53.656;10.076;2023-05-03T11:40:33;97906.59;;;-145.95;41.12
37648;BME280;23490;53.656;10.076;2023-05-03T11:42:59;97985.03;;;-145.95;40.56
37648;BME280;23490;53.656;10.076;2023-05-03T11:45:25;97869.44;;;-145.95;39.63
37648;BME280;23490;53.656;10.076;2023-05-03T11:47:53;97753.84;;;-145.95;40.31
37648;BME280;23490;53.656;10.076;2023-05-03T11:50:26;98053.16;;;-145.95;40.18
37648;BME280;23490;53.656;10.076;2023-05-03T11:53:07;97745.59;;;-145.95;40.07
37648;BME280;23490;53.656;10.076;2023-05-03T11:55:32;97797.19;;;-145.95;39.76
37648;BME280;23490;53.656;10.076;2023-05-03T11:57:59;97526.78;;;-145.95;38.31
37648;BME280;23490;53.656;10.076;2023-05-03T12:00:25;97262.59;;;-145.95;36.34
37648;BME280;23490;53.656;10.076;2023-05-03T12:02:50;97283.25;;;-145.95;34.90
37648;BME280;23490;53.656;10.076;2023-05-03T12:05:16;97241.97;;;-145.95;35.10
37648;BME280;23490;53.656;10.076;2023-05-03T12:07:41;97477.25;;;-145.95;35.79
37648;BME280;23490;53.656;10.076;2023-05-03T12:10:16;97650.63;;;-145.95;37.01
37648;BME280;23490;53.656;10.076;2023-05-03T12:12:55;97303.88;;;-145.95;35.33
37648;BME280;23490;53.656;10.076;2023-05-03T12:15:35;97225.44;;;-145.95;35.73
37648;BME280;23490;53.656;10.076;2023-05-03T12:18:05;97270.84;;;-145.95;36.16
37648;BME280;23490;53.656;10.076;2023-05-03T12:20:31;97184.16;;;-145.95;34.46
37648;BME280;23490;53.656;10.076;2023-05-03T12:23:00;97035.56;;;-145.95;34.18
37648;BME280;23490;53.656;10.076;2023-05-03T12:25:27;97039.69;;;-145.95;32.91
37648;BME280;23490;53.656;10.076;2023-05-03T12:27:54;97014.94;;;-145.95;32.93
37648;BME280;23490;53.656;10.076;2023-05-03T12:30:20;97062.41;;;-145.95;33.66
37648;BME280;23490;53.656;10.076;2023-05-03T12:32:46;97184.16;;;-145.95;34.14
37648;BME280;23490;53.656;10.076;2023-05-03T12:35:11;97027.31;;;-145.95;33.29
37648;BME280;23490;53.656;10.076;2023-05-03T12:37:37;97171.78;;;-145.95;34.42
37648;BME280;23490;53.656;10.076;2023-05-03T12:40:03;97262.59;;;-145.95;34.48
37648;BME280;23490;53.656;10.076;2023-05-03T12:42:29;97095.41;;;-145.95;33.82
37648;BME280;23490;53.656;10.076;2023-05-03T12:44:58;96911.75;;;-145.95;32.80
37648;BME280;23490;53.656;10.076;2023-05-03T12:47:24;97039.69;;;-145.95;32.42
37648;BME280;23490;53.656;10.076;2023-05-03T12:49:50;97019.06;;;-145.95;33.57
37648;BME280;23490;53.656;10.076;2023-05-03T12:52:16;97270.84;;;-145.95;35.05
37648;BME280;23490;53.656;10.076;2023-05-03T12:54:41;97324.50;;;-145.95;35.49